Rio Pico, Argentina
Current Conditions -  °F | °C
As of 1:00 PM on Sunday 23 Nov 2014 (Local Time) from SCAP Reporting Station
Overcast Overcast  
Wind Chill: 10°   Ceiling: 4200
Heat Index: 10°   Visibility: NA
Dew Point:   Wind: 10mph
Humidity: 71%   Direction: 250°WSW
Pressure: 29.85"   Gusts: NA
Location:  44.2°S, 71.35°W
Report Text: SCAP 231600Z AUTO 25009KT 210V270 //// // OVC042 10/05 Q1011
Loading
Personal Weather Stations






























Interactive Weather Map New forecast layout! Learn more

10-Day Weather Forecast

Advertisements
Track Severe Weather on mobile